sensor_id;sensor_type;location;lat;lon;timestamp;temperature;humidity
2054;DHT22;1032;52.542;13.440;2023-03-01T00:00:54;0.70;99.90
2054;DHT22;1032;52.542;13.440;2023-03-01T00:03:20;0.70;99.90
2054;DHT22;1032;52.542;13.440;2023-03-01T00:05:47;1.00;99.90
2054;DHT22;1032;52.542;13.440;2023-03-01T00:08:14;0.70;99.90
2054;DHT22;1032;52.542;13.440;2023-03-01T00:10:42;0.60;99.90
2054;DHT22;1032;52.542;13.440;2023-03-01T00:13:08;0.80;99.90
2054;DHT22;1032;52.542;13.440;2023-03-01T00:15:38;0.50;99.90
2054;DHT22;1032;52.542;13.440;2023-03-01T00:18:05;0.70;99.90
2054;DHT22;1032;52.542;13.440;2023-03-01T00:20:32;0.20;99.90
2054;DHT22;1032;52.542;13.440;2023-03-01T00:22:58;0.60;99.90
2054;DHT22;1032;52.542;13.440;2023-03-01T00:25:25;0.70;99.90
2054;DHT22;1032;52.542;13.440;2023-03-01T00:27:53;0.60;99.90
2054;DHT22;1032;52.542;13.440;2023-03-01T00:30:20;0.60;99.90
2054;DHT22;1032;52.542;13.440;2023-03-01T00:32:46;0.60;99.90
2054;DHT22;1032;52.542;13.440;2023-03-01T00:35:13;0.70;99.90
2054;DHT22;1032;52.542;13.440;2023-03-01T00:37:39;0.80;99.90
2054;DHT22;1032;52.542;13.440;2023-03-01T00:40:08;0.80;99.90
2054;DHT22;1032;52.542;13.440;2023-03-01T00:42:35;0.50;99.90
2054;DHT22;1032;52.542;13.440;2023-03-01T00:45:04;0.00;99.90
2054;DHT22;1032;52.542;13.440;2023-03-01T00:47:33;0.50;99.90
2054;DHT22;1032;52.542;13.440;2023-03-01T00:49:59;0.50;99.90
2054;DHT22;1032;52.542;13.440;2023-03-01T00:52:26;0.70;99.90
2054;DHT22;1032;52.542;13.440;2023-03-01T00:54:53;0.60;99.90
2054;DHT22;1032;52.542;13.440;2023-03-01T00:57:20;1.00;99.90
2054;DHT22;1032;52.542;13.440;2023-03-01T00:59:46;0.30;99.90
2054;DHT22;1032;52.542;13.440;2023-03-01T01:02:15;0.30;99.90
2054;DHT22;1032;52.542;13.440;2023-03-01T01:04:41;0.50;99.90
2054;DHT22;1032;52.542;13.440;2023-03-01T01:07:08;0.50;99.90
2054;DHT22;1032;52.542;13.440;2023-03-01T01:09:35;0.60;99.90
2054;DHT22;1032;52.542;13.440;2023-03-01T01:12:02;0.70;99.90
2054;DHT22;1032;52.542;13.440;2023-03-01T01:14:29;0.00;99.90
2054;DHT22;1032;52.542;13.440;2023-03-01T01:16:56;0.50;99.90
2054;DHT22;1032;52.542;13.440;2023-03-01T01:19:25;0.30;99.90
2054;DHT22;1032;52.542;13.440;2023-03-01T01:21:52;1.00;99.90
2054;DHT22;1032;52.542;13.440;2023-03-01T01:24:19;0.40;99.90
2054;DHT22;1032;52.542;13.440;2023-03-01T01:26:46;0.20;99.90
2054;DHT22;1032;52.542;13.440;2023-03-01T01:29:13;0.50;99.90
2054;DHT22;1032;52.542;13.440;2023-03-01T01:31:41;0.50;99.90
2054;DHT22;1032;52.542;13.440;2023-03-01T01:34:13;0.40;99.90
2054;DHT22;1032;52.542;13.440;2023-03-01T01:36:42;0.30;99.90
2054;DHT22;1032;52.542;13.440;2023-03-01T01:39:09;0.40;99.90
2054;DHT22;1032;52.542;13.440;2023-03-01T01:41:39;0.30;99.90
2054;DHT22;1032;52.542;13.440;2023-03-01T01:44:13;0.50;99.90
2054;DHT22;1032;52.542;13.440;2023-03-01T01:46:41;0.60;99.90
2054;DHT22;1032;52.542;13.440;2023-03-01T01:49:17;0.60;99.90
2054;DHT22;1032;52.542;13.440;2023-03-01T01:51:49;0.30;99.90
2054;DHT22;1032;52.542;13.440;2023-03-01T01:54:19;0.30;99.90
2054;DHT22;1032;52.542;13.440;2023-03-01T01:56:49;0.40;99.90
2054;DHT22;1032;52.542;13.440;2023-03-01T01:59:18;-0.20;99.90
2054;DHT22;1032;52.542;13.440;2023-03-01T02:01:50;0.50;99.90
2054;DHT22;1032;52.542;13.440;2023-03-01T02:04:17;0.40;99.90
2054;DHT22;1032;52.542;13.440;2023-03-01T02:06:48;0.50;99.90
2054;DHT22;1032;52.542;13.440;2023-03-01T02:09:20;0.50;99.90
2054;DHT22;1032;52.542;13.440;2023-03-01T02:11:48;0.30;99.90
2054;DHT22;1032;52.542;13.440;2023-03-01T02:14:17;0.50;99.90
2054;DHT22;1032;52.542;13.440;2023-03-01T02:16:44;0.50;99.90
2054;DHT22;1032;52.542;13.440;2023-03-01T02:19:23;0.40;99.90
2054;DHT22;1032;52.542;13.440;2023-03-01T02:22:00;0.20;99.90
2054;DHT22;1032;52.542;13.440;2023-03-01T02:24:34;0.40;99.90
2054;DHT22;1032;52.542;13.440;2023-03-01T02:27:05;0.30;99.90
2054;DHT22;1032;52.542;13.440;2023-03-01T02:29:34;0.40;99.90
2054;DHT22;1032;52.542;13.440;2023-03-01T02:32:02;0.20;99.90
2054;DHT22;1032;52.542;13.440;2023-03-01T02:34:31;0.60;99.90
2054;DHT22;1032;52.542;13.440;2023-03-01T02:37:01;0.00;99.90
2054;DHT22;1032;52.542;13.440;2023-03-01T02:39:32;0.20;99.90
2054;DHT22;1032;52.542;13.440;2023-03-01T02:42:01;0.10;99.90
2054;DHT22;1032;52.542;13.440;2023-03-01T02:44:28;0.30;99.90
2054;DHT22;1032;52.542;13.440;2023-03-01T02:46:58;-0.10;99.90
2054;DHT22;1032;52.542;13.440;2023-03-01T02:49:29;0.00;99.90
2054;DHT22;1032;52.542;13.440;2023-03-01T02:54:57;0.10;99.90
2054;DHT22;1032;52.542;13.440;2023-03-01T02:57:27;0.00;99.90
2054;DHT22;1032;52.542;13.440;2023-03-01T02:59:55;0.00;99.90
2054;DHT22;1032;52.542;13.440;2023-03-01T03:02:25;0.10;99.90
2054;DHT22;1032;52.542;13.440;2023-03-01T03:05:08;-0.10;99.90
2054;DHT22;1032;52.542;13.440;2023-03-01T03:07:36;0.00;99.90
2054;DHT22;1032;52.542;13.440;2023-03-01T03:10:05;0.00;99.90
2054;DHT22;1032;52.542;13.440;2023-03-01T03:12:33;-0.10;99.90
2054;DHT22;1032;52.542;13.440;2023-03-01T03:14:59;0.00;99.90
2054;DHT22;1032;52.542;13.440;2023-03-01T03:17:27;-0.10;99.90
2054;DHT22;1032;52.542;13.440;2023-03-01T03:19:54;-0.10;99.90
2054;DHT22;1032;52.542;13.440;2023-03-01T03:22:21;-0.30;99.90
2054;DHT22;1032;52.542;13.440;2023-03-01T03:24:47;-0.40;99.90
2054;DHT22;1032;52.542;13.440;2023-03-01T03:27:14;-0.10;99.90
2054;DHT22;1032;52.542;13.440;2023-03-01T03:29:41;-0.10;99.90
2054;DHT22;1032;52.542;13.440;2023-03-01T03:32:07;-0.60;99.90
2054;DHT22;1032;52.542;13.440;2023-03-01T03:34:35;-0.10;99.90
2054;DHT22;1032;52.542;13.440;2023-03-01T03:37:02;-0.30;99.90
2054;DHT22;1032;52.542;13.440;2023-03-01T03:39:28;-0.10;99.90
2054;DHT22;1032;52.542;13.440;2023-03-01T03:42:00;-0.10;99.90
2054;DHT22;1032;52.542;13.440;2023-03-01T03:44:27;-0.20;99.90
2054;DHT22;1032;52.542;13.440;2023-03-01T03:46:53;-0.30;99.90
2054;DHT22;1032;52.542;13.440;2023-03-01T03:49:20;-0.40;99.90
2054;DHT22;1032;52.542;13.440;2023-03-01T03:51:48;-0.40;99.90
2054;DHT22;1032;52.542;13.440;2023-03-01T03:54:15;-0.30;99.90
2054;DHT22;1032;52.542;13.440;2023-03-01T03:56:42;-0.30;99.90
2054;DHT22;1032;52.542;13.440;2023-03-01T03:59:09;-0.50;99.90
2054;DHT22;1032;52.542;13.440;2023-03-01T04:01:36;-0.30;99.90
2054;DHT22;1032;52.542;13.440;2023-03-01T04:04:03;-0.40;99.90
2054;DHT22;1032;52.542;13.440;2023-03-01T04:06:30;-0.20;99.90
2054;DHT22;1032;52.542;13.440;2023-03-01T04:08:58;-0.20;99.90
2054;DHT22;1032;52.542;13.440;2023-03-01T04:11:28;-0.30;99.90
2054;DHT22;1032;52.542;13.440;2023-03-01T04:13:56;-0.40;99.90
2054;DHT22;1032;52.542;13.440;2023-03-01T04:16:24;-0.40;99.90
2054;DHT22;1032;52.542;13.440;2023-03-01T04:18:51;-0.30;99.90
2054;DHT22;1032;52.542;13.440;2023-03-01T04:21:19;-0.40;99.90
2054;DHT22;1032;52.542;13.440;2023-03-01T04:23:45;-0.70;99.90
2054;DHT22;1032;52.542;13.440;2023-03-01T04:26:13;-0.40;99.90
2054;DHT22;1032;52.542;13.440;2023-03-01T04:28:41;-0.30;99.90
2054;DHT22;1032;52.542;13.440;2023-03-01T04:31:12;-0.30;99.90
2054;DHT22;1032;52.542;13.440;2023-03-01T04:33:41;-0.40;99.90
2054;DHT22;1032;52.542;13.440;2023-03-01T04:36:09;-0.60;99.90
2054;DHT22;1032;52.542;13.440;2023-03-01T04:38:37;-1.00;99.90
2054;DHT22;1032;52.542;13.440;2023-03-01T04:41:04;-0.20;99.90
2054;DHT22;1032;52.542;13.440;2023-03-01T04:43:32;-0.70;99.90
2054;DHT22;1032;52.542;13.440;2023-03-01T04:46:03;-0.60;99.90
2054;DHT22;1032;52.542;13.440;2023-03-01T04:48:31;-0.40;99.90
2054;DHT22;1032;52.542;13.440;2023-03-01T04:50:59;-0.40;99.90
2054;DHT22;1032;52.542;13.440;2023-03-01T04:53:28;-1.10;99.90
2054;DHT22;1032;52.542;13.440;2023-03-01T04:55:55;-0.70;99.90
2054;DHT22;1032;52.542;13.440;2023-03-01T04:58:22;-0.50;99.90
2054;DHT22;1032;52.542;13.440;2023-03-01T05:00:50;-0.50;99.90
2054;DHT22;1032;52.542;13.440;2023-03-01T05:03:17;-0.70;99.90
2054;DHT22;1032;52.542;13.440;2023-03-01T05:05:45;-0.50;99.90
2054;DHT22;1032;52.542;13.440;2023-03-01T05:08:13;-0.80;99.90
2054;DHT22;1032;52.542;13.440;2023-03-01T05:10:44;-0.80;99.90
2054;DHT22;1032;52.542;13.440;2023-03-01T05:13:13;-0.60;99.90
2054;DHT22;1032;52.542;13.440;2023-03-01T05:15:40;-0.60;99.90
2054;DHT22;1032;52.542;13.440;2023-03-01T05:18:08;-0.50;99.90
2054;DHT22;1032;52.542;13.440;2023-03-01T05:20:37;-0.50;99.90
2054;DHT22;1032;52.542;13.440;2023-03-01T05:23:04;-1.30;99.90
2054;DHT22;1032;52.542;13.440;2023-03-01T05:25:32;-0.60;99.90
2054;DHT22;1032;52.542;13.440;2023-03-01T05:28:00;-0.80;99.90
2054;DHT22;1032;52.542;13.440;2023-03-01T05:30:30;-1.40;99.90
2054;DHT22;1032;52.542;13.440;2023-03-01T05:32:58;-0.50;99.90
2054;DHT22;1032;52.542;13.440;2023-03-01T05:35:26;-0.70;99.90
2054;DHT22;1032;52.542;13.440;2023-03-01T05:37:55;-0.90;99.90
2054;DHT22;1032;52.542;13.440;2023-03-01T05:40:23;-0.80;99.90
2054;DHT22;1032;52.542;13.440;2023-03-01T05:42:52;-0.60;99.90
2054;DHT22;1032;52.542;13.440;2023-03-01T05:45:20;-0.80;99.90
2054;DHT22;1032;52.542;13.440;2023-03-01T05:47:49;-0.80;99.90
2054;DHT22;1032;52.542;13.440;2023-03-01T05:50:17;-0.60;99.90
2054;DHT22;1032;52.542;13.440;2023-03-01T05:52:48;-0.80;99.90
2054;DHT22;1032;52.542;13.440;2023-03-01T05:55:16;-0.80;99.90
2054;DHT22;1032;52.542;13.440;2023-03-01T05:57:43;-0.80;99.90
2054;DHT22;1032;52.542;13.440;2023-03-01T06:00:15;-0.90;99.90
2054;DHT22;1032;52.542;13.440;2023-03-01T06:02:42;-0.50;99.90
2054;DHT22;1032;52.542;13.440;2023-03-01T06:05:10;-0.90;99.90
2054;DHT22;1032;52.542;13.440;2023-03-01T06:07:37;-1.20;99.90
2054;DHT22;1032;52.542;13.440;2023-03-01T06:10:07;-0.90;99.90
2054;DHT22;1032;52.542;13.440;2023-03-01T06:12:36;-0.70;99.90
2054;DHT22;1032;52.542;13.440;2023-03-01T06:15:04;-0.50;99.90
2054;DHT22;1032;52.542;13.440;2023-03-01T06:17:33;-0.60;99.90
2054;DHT22;1032;52.542;13.440;2023-03-01T06:20:03;-0.50;99.90
2054;DHT22;1032;52.542;13.440;2023-03-01T06:22:30;-0.50;99.90
2054;DHT22;1032;52.542;13.440;2023-03-01T06:24:56;-0.50;99.90
2054;DHT22;1032;52.542;13.440;2023-03-01T06:27:24;-1.10;99.90
2054;DHT22;1032;52.542;13.440;2023-03-01T06:29:51;-1.10;99.90
2054;DHT22;1032;52.542;13.440;2023-03-01T06:32:18;-0.80;99.90
2054;DHT22;1032;52.542;13.440;2023-03-01T06:34:44;-0.50;99.90
2054;DHT22;1032;52.542;13.440;2023-03-01T06:37:11;-0.40;99.90
2054;DHT22;1032;52.542;13.440;2023-03-01T06:39:38;0.10;99.90
2054;DHT22;1032;52.542;13.440;2023-03-01T06:42:06;-0.50;99.90
2054;DHT22;1032;52.542;13.440;2023-03-01T06:44:34;-0.50;99.90
2054;DHT22;1032;52.542;13.440;2023-03-01T06:47:01;-0.20;99.90
2054;DHT22;1032;52.542;13.440;2023-03-01T06:49:28;-0.30;99.90
2054;DHT22;1032;52.542;13.440;2023-03-01T06:51:55;-0.20;99.90
2054;DHT22;1032;52.542;13.440;2023-03-01T06:54:22;-0.20;99.90
2054;DHT22;1032;52.542;13.440;2023-03-01T06:56:50;-0.20;99.90
2054;DHT22;1032;52.542;13.440;2023-03-01T06:59:17;-0.20;99.90
2054;DHT22;1032;52.542;13.440;2023-03-01T07:01:45;-0.20;99.90
2054;DHT22;1032;52.542;13.440;2023-03-01T07:04:12;0.00;99.90
2054;DHT22;1032;52.542;13.440;2023-03-01T07:06:39;0.10;99.90
2054;DHT22;1032;52.542;13.440;2023-03-01T07:09:06;-0.70;99.90
2054;DHT22;1032;52.542;13.440;2023-03-01T07:11:32;0.00;99.90
2054;DHT22;1032;52.542;13.440;2023-03-01T07:13:59;0.20;99.90
2054;DHT22;1032;52.542;13.440;2023-03-01T07:16:26;0.20;99.90
2054;DHT22;1032;52.542;13.440;2023-03-01T07:18:54;0.30;99.90
2054;DHT22;1032;52.542;13.440;2023-03-01T07:21:21;0.20;99.90
2054;DHT22;1032;52.542;13.440;2023-03-01T07:23:47;0.40;99.90
2054;DHT22;1032;52.542;13.440;2023-03-01T07:26:14;0.40;99.90
2054;DHT22;1032;52.542;13.440;2023-03-01T07:28:41;0.60;99.90
2054;DHT22;1032;52.542;13.440;2023-03-01T07:31:08;0.50;99.90
2054;DHT22;1032;52.542;13.440;2023-03-01T07:33:34;0.60;99.90
2054;DHT22;1032;52.542;13.440;2023-03-01T07:36:04;0.60;99.90
2054;DHT22;1032;52.542;13.440;2023-03-01T07:38:31;0.80;99.90
2054;DHT22;1032;52.542;13.440;2023-03-01T07:40:59;0.90;99.90
2054;DHT22;1032;52.542;13.440;2023-03-01T07:43:25;0.90;99.90
2054;DHT22;1032;52.542;13.440;2023-03-01T07:45:52;0.70;99.90
2054;DHT22;1032;52.542;13.440;2023-03-01T07:48:19;1.00;99.90
2054;DHT22;1032;52.542;13.440;2023-03-01T07:50:45;1.30;99.90
2054;DHT22;1032;52.542;13.440;2023-03-01T07:53:14;0.90;99.90
2054;DHT22;1032;52.542;13.440;2023-03-01T07:55:40;1.00;99.90
2054;DHT22;1032;52.542;13.440;2023-03-01T07:58:07;1.10;99.90
2054;DHT22;1032;52.542;13.440;2023-03-01T08:00:34;1.40;99.90
2054;DHT22;1032;52.542;13.440;2023-03-01T08:03:01;1.40;99.90
2054;DHT22;1032;52.542;13.440;2023-03-01T08:05:28;0.70;99.90
2054;DHT22;1032;52.542;13.440;2023-03-01T08:07:55;1.60;99.90
2054;DHT22;1032;52.542;13.440;2023-03-01T08:10:23;0.90;99.90
2054;DHT22;1032;52.542;13.440;2023-03-01T08:12:51;1.50;99.90
2054;DHT22;1032;52.542;13.440;2023-03-01T08:15:18;1.10;99.90
2054;DHT22;1032;52.542;13.440;2023-03-01T08:17:49;2.00;99.90
2054;DHT22;1032;52.542;13.440;2023-03-01T08:20:16;1.60;99.90
2054;DHT22;1032;52.542;13.440;2023-03-01T08:22:42;2.30;99.90
2054;DHT22;1032;52.542;13.440;2023-03-01T08:25:09;1.90;99.90
2054;DHT22;1032;52.542;13.440;2023-03-01T08:27:37;2.20;99.90
2054;DHT22;1032;52.542;13.440;2023-03-01T08:30:05;2.20;99.90
2054;DHT22;1032;52.542;13.440;2023-03-01T08:32:36;2.20;99.90
2054;DHT22;1032;52.542;13.440;2023-03-01T08:35:04;2.10;99.90
2054;DHT22;1032;52.542;13.440;2023-03-01T08:37:31;2.40;99.90
2054;DHT22;1032;52.542;13.440;2023-03-01T08:39:58;2.60;99.90
2054;DHT22;1032;52.542;13.440;2023-03-01T08:42:25;2.50;99.90
2054;DHT22;1032;52.542;13.440;2023-03-01T08:44:53;2.50;99.90
2054;DHT22;1032;52.542;13.440;2023-03-01T08:47:19;2.80;99.90
2054;DHT22;1032;52.542;13.440;2023-03-01T08:49:46;2.80;99.90
2054;DHT22;1032;52.542;13.440;2023-03-01T08:52:13;2.60;99.90
2054;DHT22;1032;52.542;13.440;2023-03-01T08:54:39;2.10;99.90
2054;DHT22;1032;52.542;13.440;2023-03-01T08:57:06;2.70;99.90
2054;DHT22;1032;52.542;13.440;2023-03-01T08:59:34;2.20;99.90
2054;DHT22;1032;52.542;13.440;2023-03-01T09:02:08;3.10;99.90
2054;DHT22;1032;52.542;13.440;2023-03-01T09:04:37;2.80;99.90
2054;DHT22;1032;52.542;13.440;2023-03-01T09:07:04;3.10;99.90
2054;DHT22;1032;52.542;13.440;2023-03-01T09:09:30;2.90;99.90
2054;DHT22;1032;52.542;13.440;2023-03-01T09:11:57;3.10;99.90
2054;DHT22;1032;52.542;13.440;2023-03-01T09:14:24;3.20;99.90
2054;DHT22;1032;52.542;13.440;2023-03-01T09:16:50;3.00;99.90
2054;DHT22;1032;52.542;13.440;2023-03-01T09:19:18;3.20;99.90
2054;DHT22;1032;52.542;13.440;2023-03-01T09:21:45;3.30;99.90
2054;DHT22;1032;52.542;13.440;2023-03-01T09:24:19;3.50;99.90
2054;DHT22;1032;52.542;13.440;2023-03-01T09:26:46;2.80;99.80
2054;DHT22;1032;52.542;13.440;2023-03-01T09:29:13;3.40;99.90
2054;DHT22;1032;52.542;13.440;2023-03-01T09:31:41;3.00;99.60
2054;DHT22;1032;52.542;13.440;2023-03-01T09:34:09;3.30;99.50
2054;DHT22;1032;52.542;13.440;2023-03-01T09:36:37;3.50;99.60
2054;DHT22;1032;52.542;13.440;2023-03-01T09:39:04;3.50;99.70
2054;DHT22;1032;52.542;13.440;2023-03-01T09:41:49;3.60;99.40
2054;DHT22;1032;52.542;13.440;2023-03-01T09:44:25;3.70;99.50
2054;DHT22;1032;52.542;13.440;2023-03-01T09:46:54;3.80;99.40
2054;DHT22;1032;52.542;13.440;2023-03-01T09:49:24;3.80;98.90
2054;DHT22;1032;52.542;13.440;2023-03-01T09:52:00;4.00;98.20
2054;DHT22;1032;52.542;13.440;2023-03-01T09:54:27;4.00;98.30
2054;DHT22;1032;52.542;13.440;2023-03-01T09:57:02;4.00;98.20
2054;DHT22;1032;52.542;13.440;2023-03-01T09:59:39;4.00;98.10
2054;DHT22;1032;52.542;13.440;2023-03-01T10:02:21;4.00;97.90
2054;DHT22;1032;52.542;13.440;2023-03-01T10:04:51;4.20;97.60
2054;DHT22;1032;52.542;13.440;2023-03-01T10:07:29;4.60;97.20
2054;DHT22;1032;52.542;13.440;2023-03-01T10:09:59;4.80;97.10
2054;DHT22;1032;52.542;13.440;2023-03-01T10:12:33;4.50;96.70
2054;DHT22;1032;52.542;13.440;2023-03-01T10:15:05;4.40;96.80
2054;DHT22;1032;52.542;13.440;2023-03-01T10:17:37;4.30;96.20
2054;DHT22;1032;52.542;13.440;2023-03-01T10:20:16;4.30;96.70
2054;DHT22;1032;52.542;13.440;2023-03-01T10:22:45;4.40;96.30
2054;DHT22;1032;52.542;13.440;2023-03-01T10:25:17;4.40;95.80
2054;DHT22;1032;52.542;13.440;2023-03-01T10:27:51;4.30;95.50
2054;DHT22;1032;52.542;13.440;2023-03-01T10:30:21;4.10;94.70
2054;DHT22;1032;52.542;13.440;2023-03-01T10:32:51;4.50;94.70
2054;DHT22;1032;52.542;13.440;2023-03-01T10:35:21;4.50;94.50
2054;DHT22;1032;52.542;13.440;2023-03-01T10:38:00;4.60;94.90
2054;DHT22;1032;52.542;13.440;2023-03-01T10:40:28;4.80;95.00
2054;DHT22;1032;52.542;13.440;2023-03-01T10:42:58;4.70;95.00
2054;DHT22;1032;52.542;13.440;2023-03-01T10:45:32;4.50;94.80
2054;DHT22;1032;52.542;13.440;2023-03-01T10:48:11;4.80;94.40
2054;DHT22;1032;52.542;13.440;2023-03-01T10:50:38;4.90;94.10
2054;DHT22;1032;52.542;13.440;2023-03-01T10:53:23;5.00;93.60
2054;DHT22;1032;52.542;13.440;2023-03-01T10:56:01;5.20;92.90
2054;DHT22;1032;52.542;13.440;2023-03-01T10:58:29;5.40;92.30
2054;DHT22;1032;52.542;13.440;2023-03-01T11:00:57;5.10;91.20
2054;DHT22;1032;52.542;13.440;2023-03-01T11:03:27;4.50;90.70
2054;DHT22;1032;52.542;13.440;2023-03-01T11:05:57;5.10;91.10
2054;DHT22;1032;52.542;13.440;2023-03-01T11:08:34;4.90;90.60
2054;DHT22;1032;52.542;13.440;2023-03-01T11:11:07;5.40;90.60
2054;DHT22;1032;52.542;13.440;2023-03-01T11:13:49;5.20;87.90
2054;DHT22;1032;52.542;13.440;2023-03-01T11:16:23;5.30;88.20
2054;DHT22;1032;52.542;13.440;2023-03-01T11:18:57;5.20;87.30
2054;DHT22;1032;52.542;13.440;2023-03-01T11:21:24;5.30;88.50
2054;DHT22;1032;52.542;13.440;2023-03-01T11:23:54;5.50;86.90
2054;DHT22;1032;52.542;13.440;2023-03-01T11:26:21;5.40;86.00
2054;DHT22;1032;52.542;13.440;2023-03-01T11:28:51;5.30;86.60
2054;DHT22;1032;52.542;13.440;2023-03-01T11:31:20;5.50;87.80
2054;DHT22;1032;52.542;13.440;2023-03-01T11:33:54;6.10;86.50
2054;DHT22;1032;52.542;13.440;2023-03-01T11:36:28;5.30;85.30
2054;DHT22;1032;52.542;13.440;2023-03-01T11:39:05;5.60;85.40
2054;DHT22;1032;52.542;13.440;2023-03-01T11:41:40;5.50;84.30
2054;DHT22;1032;52.542;13.440;2023-03-01T11:44:13;5.10;83.40
2054;DHT22;1032;52.542;13.440;2023-03-01T11:46:51;5.50;83.20
2054;DHT22;1032;52.542;13.440;2023-03-01T11:49:36;5.50;82.90
2054;DHT22;1032;52.542;13.440;2023-03-01T11:52:12;5.00;82.00
2054;DHT22;1032;52.542;13.440;2023-03-01T11:54:55;5.30;82.20
2054;DHT22;1032;52.542;13.440;2023-03-01T11:57:41;5.50;81.70
2054;DHT22;1032;52.542;13.440;2023-03-01T12:03:32;6.00;80.90
2054;DHT22;1032;52.542;13.440;2023-03-01T12:06:14;5.80;78.70
2054;DHT22;1032;52.542;13.440;2023-03-01T12:08:54;5.90;79.10
2054;DHT22;1032;52.542;13.440;2023-03-01T12:11:36;6.10;79.60
2054;DHT22;1032;52.542;13.440;2023-03-01T12:14:33;5.80;79.50
2054;DHT22;1032;52.542;13.440;2023-03-01T12:17:23;5.90;77.80
2054;DHT22;1032;52.542;13.440;2023-03-01T12:20:10;5.90;76.70
2054;DHT22;1032;52.542;13.440;2023-03-01T12:22:48;5.80;77.30
2054;DHT22;1032;52.542;13.440;2023-03-01T12:25:25;6.10;76.10
2054;DHT22;1032;52.542;13.440;2023-03-01T12:28:22;5.40;77.30
2054;DHT22;1032;52.542;13.440;2023-03-01T12:31:05;5.90;75.50
2054;DHT22;1032;52.542;13.440;2023-03-01T12:33:40;6.30;75.60
2054;DHT22;1032;52.542;13.440;2023-03-01T12:36:20;5.90;75.90
2054;DHT22;1032;52.542;13.440;2023-03-01T12:38:59;5.90;76.20
2054;DHT22;1032;52.542;13.440;2023-03-01T12:41:46;6.60;76.80
2054;DHT22;1032;52.542;13.440;2023-03-01T12:44:30;6.20;76.60
2054;DHT22;1032;52.542;13.440;2023-03-01T12:47:10;6.00;75.60
2054;DHT22;1032;52.542;13.440;2023-03-01T12:49:41;6.20;74.60
2054;DHT22;1032;52.542;13.440;2023-03-01T12:52:14;6.00;72.30
2054;DHT22;1032;52.542;13.440;2023-03-01T12:54:44;6.00;71.40
2054;DHT22;1032;52.542;13.440;2023-03-01T12:57:15;5.50;72.60
2054;DHT22;1032;52.542;13.440;2023-03-01T12:59:55;6.40;73.30
2054;DHT22;1032;52.542;13.440;2023-03-01T13:02:30;6.30;71.40
2054;DHT22;1032;52.542;13.440;2023-03-01T13:05:07;6.20;71.00
2054;DHT22;1032;52.542;13.440;2023-03-01T13:07:43;6.60;66.10
2054;DHT22;1032;52.542;13.440;2023-03-01T13:10:19;6.50;63.10
2054;DHT22;1032;52.542;13.440;2023-03-01T13:13:00;6.70;63.60
2054;DHT22;1032;52.542;13.440;2023-03-01T13:15:31;6.90;65.20
2054;DHT22;1032;52.542;13.440;2023-03-01T13:17:59;6.50;64.70
2054;DHT22;1032;52.542;13.440;2023-03-01T13:20:31;6.80;65.00
2054;DHT22;1032;52.542;13.440;2023-03-01T13:23:04;6.30;65.70
2054;DHT22;1032;52.542;13.440;2023-03-01T13:25:32;6.50;66.00
2054;DHT22;1032;52.542;13.440;2023-03-01T13:28:40;6.50;66.10
2054;DHT22;1032;52.542;13.440;2023-03-01T13:31:10;6.70;66.10
2054;DHT22;1032;52.542;13.440;2023-03-01T13:33:42;6.60;65.30
2054;DHT22;1032;52.542;13.440;2023-03-01T13:36:09;6.40;65.90
2054;DHT22;1032;52.542;13.440;2023-03-01T13:38:46;6.40;66.80
2054;DHT22;1032;52.542;13.440;2023-03-01T13:41:14;6.70;64.80
2054;DHT22;1032;52.542;13.440;2023-03-01T13:43:42;6.90;65.40
2054;DHT22;1032;52.542;13.440;2023-03-01T13:46:16;6.40;65.90
2054;DHT22;1032;52.542;13.440;2023-03-01T13:48:47;6.80;66.10
2054;DHT22;1032;52.542;13.440;2023-03-01T13:51:15;6.60;66.60
2054;DHT22;1032;52.542;13.440;2023-03-01T13:53:44;6.80;66.70
2054;DHT22;1032;52.542;13.440;2023-03-01T13:56:14;6.50;66.10
2054;DHT22;1032;52.542;13.440;2023-03-01T13:58:49;6.90;66.80
2054;DHT22;1032;52.542;13.440;2023-03-01T14:01:26;6.70;65.60
2054;DHT22;1032;52.542;13.440;2023-03-01T14:03:54;6.90;65.30
2054;DHT22;1032;52.542;13.440;2023-03-01T14:06:22;7.30;66.20
2054;DHT22;1032;52.542;13.440;2023-03-01T14:08:51;6.90;65.80
2054;DHT22;1032;52.542;13.440;2023-03-01T14:11:29;6.80;66.50
2054;DHT22;1032;52.542;13.440;2023-03-01T14:14:16;7.40;67.70
2054;DHT22;1032;52.542;13.440;2023-03-01T14:16:52;7.10;68.00
2054;DHT22;1032;52.542;13.440;2023-03-01T14:19:24;6.80;68.30
2054;DHT22;1032;52.542;13.440;2023-03-01T14:21:59;7.00;69.00
2054;DHT22;1032;52.542;13.440;2023-03-01T14:24:28;6.70;69.60
2054;DHT22;1032;52.542;13.440;2023-03-01T14:26:55;6.60;70.60
2054;DHT22;1032;52.542;13.440;2023-03-01T14:29:34;6.40;69.60
2054;DHT22;1032;52.542;13.440;2023-03-01T14:32:18;6.90;70.30
2054;DHT22;1032;52.542;13.440;2023-03-01T14:34:47;7.10;70.70
2054;DHT22;1032;52.542;13.440;2023-03-01T14:37:20;6.70;70.70
2054;DHT22;1032;52.542;13.440;2023-03-01T14:39:48;7.00;70.90
2054;DHT22;1032;52.542;13.440;2023-03-01T14:42:15;6.70;70.40
2054;DHT22;1032;52.542;13.440;2023-03-01T14:44:44;6.90;70.60
2054;DHT22;1032;52.542;13.440;2023-03-01T14:47:16;7.10;72.00
2054;DHT22;1032;52.542;13.440;2023-03-01T14:49:47;7.10;72.00
2054;DHT22;1032;52.542;13.440;2023-03-01T14:52:19;7.10;73.00
2054;DHT22;1032;52.542;13.440;2023-03-01T14:54:48;6.70;73.10
2054;DHT22;1032;52.542;13.440;2023-03-01T14:57:18;6.40;72.90
2054;DHT22;1032;52.542;13.440;2023-03-01T14:59:45;7.00;74.00
2054;DHT22;1032;52.542;13.440;2023-03-01T15:02:17;7.00;74.10
2054;DHT22;1032;52.542;13.440;2023-03-01T15:04:46;7.10;74.60
2054;DHT22;1032;52.542;13.440;2023-03-01T15:07:14;7.10;74.30
2054;DHT22;1032;52.542;13.440;2023-03-01T15:09:42;6.90;74.10
2054;DHT22;1032;52.542;13.440;2023-03-01T15:12:35;7.00;74.40
2054;DHT22;1032;52.542;13.440;2023-03-01T15:15:21;7.10;73.90
2054;DHT22;1032;52.542;13.440;2023-03-01T15:17:52;7.00;73.80
2054;DHT22;1032;52.542;13.440;2023-03-01T15:20:24;6.90;74.20
2054;DHT22;1032;52.542;13.440;2023-03-01T15:22:53;6.90;74.00
2054;DHT22;1032;52.542;13.440;2023-03-01T15:25:22;7.20;74.40
2054;DHT22;1032;52.542;13.440;2023-03-01T15:27:51;6.90;74.20
2054;DHT22;1032;52.542;13.440;2023-03-01T15:30:21;6.90;74.30
2054;DHT22;1032;52.542;13.440;2023-03-01T15:33:17;7.10;73.90
2054;DHT22;1032;52.542;13.440;2023-03-01T15:35:46;7.30;74.60
2054;DHT22;1032;52.542;13.440;2023-03-01T15:38:29;7.00;74.30
2054;DHT22;1032;52.542;13.440;2023-03-01T15:40:57;7.00;74.20
2054;DHT22;1032;52.542;13.440;2023-03-01T15:43:38;7.10;74.70
2054;DHT22;1032;52.542;13.440;2023-03-01T15:46:05;7.40;75.20
2054;DHT22;1032;52.542;13.440;2023-03-01T15:48:33;7.00;74.30
2054;DHT22;1032;52.542;13.440;2023-03-01T15:51:00;7.10;75.00
2054;DHT22;1032;52.542;13.440;2023-03-01T15:53:27;7.10;74.70
2054;DHT22;1032;52.542;13.440;2023-03-01T15:55:54;7.10;75.30
2054;DHT22;1032;52.542;13.440;2023-03-01T15:58:23;7.10;75.30
2054;DHT22;1032;52.542;13.440;2023-03-01T16:00:51;7.20;75.70
2054;DHT22;1032;52.542;13.440;2023-03-01T16:03:22;6.90;74.90
2054;DHT22;1032;52.542;13.440;2023-03-01T16:05:50;7.10;75.70
2054;DHT22;1032;52.542;13.440;2023-03-01T16:08:18;7.10;75.90
2054;DHT22;1032;52.542;13.440;2023-03-01T16:10:45;6.90;75.90
2054;DHT22;1032;52.542;13.440;2023-03-01T16:13:13;7.40;76.00
2054;DHT22;1032;52.542;13.440;2023-03-01T16:15:40;7.00;76.30
2054;DHT22;1032;52.542;13.440;2023-03-01T16:18:07;6.90;76.30
2054;DHT22;1032;52.542;13.440;2023-03-01T16:20:36;6.70;75.90
2054;DHT22;1032;52.542;13.440;2023-03-01T16:23:06;6.70;76.30